Time;durP1;ratioP1;P1;durP2;ratioP2;P2;SDS_P1;SDS_P2;PMS_P1;PMS_P2;Temp;Humidity;BMP_temperature;BMP_pressure;BME280_temperature;BME280_humidity;BME280_pressure;Samples;Min_cycle;Max_cycle;Signal;HPM_P1;HPM_P2
2023/07/18 00:01:40;;;;;;;;;;;;;;;25.95;56.66;100771.91;107597;1250;99292;-60
2023/07/18 00:04:09;;;;;;;;;;;;;;;25.82;56.20;100779.12;107612;1254;113279;-62
2023/07/18 00:06:41;;;;;;;;;;;;;;;25.76;55.79;100779.48;107659;1254;110619;-61
2023/07/18 00:09:11;;;;;;;;;;;;;;;25.78;55.64;100780.71;107586;1254;108274;-62
2023/07/18 00:11:39;;;;;;;;;;;;;;;25.80;56.01;100787.92;107606;1256;99301;-62
2023/07/18 00:14:07;;;;;;;;;;;;;;;25.79;56.97;100784.77;107570;1254;99085;-60
2023/07/18 00:16:35;;;;;;;;;;;;;;;25.77;56.75;100788.41;107603;1256;112501;-60
2023/07/18 00:19:03;;;;;;;;;;;;;;;25.75;56.52;100789.63;107577;1251;108975;-62
2023/07/18 00:21:31;;;;;;;;;;;;;;;25.73;56.57;100784.41;107567;1256;109238;-61
2023/07/18 00:23:59;;;;;;;;;;;;;;;25.71;56.23;100785.84;107570;1251;99166;-61
2023/07/18 00:26:27;;;;;;;;;;;;;;;25.70;54.07;100783.82;107591;1256;99186;-63
2023/07/18 00:28:55;;;;;;;;;;;;;;;25.71;52.10;100778.13;107579;1256;112987;-61
2023/07/18 00:31:23;;;;;;;;;;;;;;;25.75;51.41;100773.25;107608;1251;110220;-61
2023/07/18 00:33:52;;;;;;;;;;;;;;;25.78;50.64;100770.54;107547;1251;108435;-61
2023/07/18 00:36:20;;;;;;;;;;;;;;;25.83;50.56;100757.58;107510;1253;99175;-60
2023/07/18 00:38:49;;;;;;;;;;;;;;;25.87;50.20;100753.40;107641;1254;99066;-61
2023/07/18 00:41:17;;;;;;;;;;;;;;;25.91;49.12;100749.17;107613;1257;112926;-61
2023/07/18 00:43:45;;;;;;;;;;;;;;;25.95;48.50;100748.20;107547;1251;109279;-61
2023/07/18 00:46:15;;;;;;;;;;;;;;;25.97;48.26;100743.24;107473;1255;108300;-63
2023/07/18 00:48:44;;;;;;;;;;;;;;;25.98;49.03;100739.20;107679;1254;99154;-62
2023/07/18 00:51:13;;;;;;;;;;;;;;;25.98;50.16;100741.03;107595;1251;100892;-61
2023/07/18 00:53:41;;;;;;;;;;;;;;;25.94;51.22;100730.96;107627;1256;114065;-60
2023/07/18 00:56:10;;;;;;;;;;;;;;;25.88;51.84;100719.79;107557;1255;109379;-62
2023/07/18 00:58:39;;;;;;;;;;;;;;;25.84;52.34;100718.13;107592;1254;107476;-62
2023/07/18 01:01:07;;;;;;;;;;;;;;;25.79;51.48;100713.67;107603;1257;99273;-61
2023/07/18 01:03:38;;;;;;;;;;;;;;;25.77;51.18;100714.91;107546;1251;99169;-60
2023/07/18 01:06:09;;;;;;;;;;;;;;;25.75;50.18;100712.78;107495;1251;112717;-60
2023/07/18 01:08:40;;;;;;;;;;;;;;;25.77;50.75;100708.13;107577;1251;110030;-61
2023/07/18 01:11:09;;;;;;;;;;;;;;;25.77;51.13;100712.22;107530;1251;108663;-61
2023/07/18 01:13:39;;;;;;;;;;;;;;;25.75;51.92;100714.25;107504;1251;99240;-62
2023/07/18 01:16:07;;;;;;;;;;;;;;;25.71;52.41;100716.79;107597;1251;99064;-61
2023/07/18 01:18:37;;;;;;;;;;;;;;;25.67;52.83;100712.62;107554;1256;113788;-61
2023/07/18 01:21:07;;;;;;;;;;;;;;;25.60;53.31;100727.45;107543;1251;108451;-61
2023/07/18 01:23:35;;;;;;;;;;;;;;;25.52;53.53;100725.48;107544;1251;108476;-61
2023/07/18 01:26:03;;;;;;;;;;;;;;;25.46;53.45;100718.69;107518;1251;99179;-61
2023/07/18 01:28:32;;;;;;;;;;;;;;;25.41;54.07;100738.09;107510;1251;99169;-62
2023/07/18 01:31:00;;;;;;;;;;;;;;;25.32;53.68;100726.21;107590;1257;112625;-61
2023/07/18 01:33:29;;;;;;;;;;;;;;;25.27;53.98;100728.36;107555;1254;109414;-61
2023/07/18 01:35:57;;;;;;;;;;;;;;;25.24;54.21;100728.77;107602;1254;107614;-61
2023/07/18 01:38:29;;;;;;;;;;;;;;;25.21;54.60;100737.89;107546;1254;99256;-61
2023/07/18 01:40:58;;;;;;;;;;;;;;;25.14;56.13;100768.46;107527;1257;99282;-60
2023/07/18 01:43:26;;;;;;;;;;;;;;;25.00;56.38;100786.64;107611;1251;112720;-61
2023/07/18 01:45:59;;;;;;;;;;;;;;;24.92;57.14;100787.34;107555;1254;110139;-61
2023/07/18 01:48:29;;;;;;;;;;;;;;;24.83;56.92;100791.29;107561;1254;107259;-60
2023/07/18 01:50:58;;;;;;;;;;;;;;;24.78;56.54;100779.89;107492;1251;99454;-61
2023/07/18 01:53:27;;;;;;;;;;;;;;;24.70;56.08;100771.99;107535;1251;99163;-61
2023/07/18 01:55:58;;;;;;;;;;;;;;;24.66;55.90;100776.79;107580;1256;113207;-61
2023/07/18 01:58:26;;;;;;;;;;;;;;;24.60;56.05;100778.26;107551;1254;109061;-63
2023/07/18 02:00:54;;;;;;;;;;;;;;;24.54;55.83;100778.62;107456;1254;108139;-62
2023/07/18 02:03:22;;;;;;;;;;;;;;;24.51;55.83;100779.88;107584;1254;99185;-61
2023/07/18 02:05:52;;;;;;;;;;;;;;;24.50;56.02;100772.08;107606;1252;99192;-61
2023/07/18 02:08:20;;;;;;;;;;;;;;;24.48;55.90;100769.29;107481;1254;113297;-62
2023/07/18 02:10:48;;;;;;;;;;;;;;;24.47;56.12;100766.10;107569;1254;109297;-60
2023/07/18 02:13:17;;;;;;;;;;;;;;;24.46;55.67;100765.48;107570;1257;108393;-61
2023/07/18 02:15:45;;;;;;;;;;;;;;;24.45;56.13;100773.85;107533;1254;99196;-61
2023/07/18 02:18:13;;;;;;;;;;;;;;;24.44;56.36;100776.84;107668;1251;99170;-61
2023/07/18 02:20:42;;;;;;;;;;;;;;;24.41;56.44;100776.21;107531;1251;112712;-61
2023/07/18 02:23:10;;;;;;;;;;;;;;;24.38;56.46;100774.73;107583;1254;108977;-59
2023/07/18 02:25:39;;;;;;;;;;;;;;;24.32;56.64;100775.77;107583;1254;107674;-60
2023/07/18 02:28:07;;;;;;;;;;;;;;;24.27;56.67;100771.73;107622;1251;99188;-62
2023/07/18 02:30:36;;;;;;;;;;;;;;;24.22;57.26;100772.25;107508;1251;99185;-61
2023/07/18 02:33:07;;;;;;;;;;;;;;;24.17;56.71;100765.31;107492;1251;112784;-62
2023/07/18 02:35:39;;;;;;;;;;;;;;;24.17;57.04;100768.23;107588;1254;109360;-61
2023/07/18 02:38:07;;;;;;;;;;;;;;;24.17;57.14;100764.04;107579;1254;108275;-62
2023/07/18 02:40:36;;;;;;;;;;;;;;;24.12;57.34;100759.28;107658;1254;99316;-61
2023/07/18 02:43:04;;;;;;;;;;;;;;;24.05;58.05;100766.73;107646;1251;99213;-61
2023/07/18 02:45:32;;;;;;;;;;;;;;;23.95;57.81;100769.45;107475;1254;112387;-61
2023/07/18 02:48:01;;;;;;;;;;;;;;;23.90;57.94;100781.48;107595;1251;109989;-61
2023/07/18 02:50:29;;;;;;;;;;;;;;;23.81;58.46;100803.19;107527;1254;106441;-60
2023/07/18 02:52:58;;;;;;;;;;;;;;;23.67;56.05;100810.81;107588;1253;99253;-62
2023/07/18 02:55:27;;;;;;;;;;;;;;;23.68;55.55;100804.98;107556;1251;99052;-63
2023/07/18 02:57:56;;;;;;;;;;;;;;;23.74;55.29;100808.13;107684;1256;113454;-62
2023/07/18 03:00:25;;;;;;;;;;;;;;;23.80;54.82;100809.96;107576;1251;109551;-62
2023/07/18 03:02:54;;;;;;;;;;;;;;;23.86;54.80;100804.63;107606;1251;108558;-61
2023/07/18 03:05:23;;;;;;;;;;;;;;;23.89;54.44;100809.30;107552;1251;99661;-61
2023/07/18 03:07:55;;;;;;;;;;;;;;;23.90;54.20;100813.46;107507;1251;99118;-61
2023/07/18 03:10:24;;;;;;;;;;;;;;;23.93;54.19;100812.23;107534;1254;112547;-61
2023/07/18 03:12:52;;;;;;;;;;;;;;;23.96;54.22;100817.52;107609;1251;109435;-61
2023/07/18 03:15:21;;;;;;;;;;;;;;;23.97;54.88;100819.53;107480;1251;109272;-60
2023/07/18 03:17:49;;;;;;;;;;;;;;;23.97;55.38;100820.17;107494;1251;99183;-61
2023/07/18 03:20:19;;;;;;;;;;;;;;;23.97;56.31;100821.18;107617;1251;99148;-60
2023/07/18 03:22:50;;;;;;;;;;;;;;;23.99;56.26;100822.38;107567;1254;113798;-61
2023/07/18 03:25:20;;;;;;;;;;;;;;;24.02;56.94;100821.05;107620;1254;109033;-59
2023/07/18 03:27:49;;;;;;;;;;;;;;;24.04;57.61;100822.09;107581;1251;107108;-60
2023/07/18 03:30:18;;;;;;;;;;;;;;;24.12;57.64;100818.45;107513;1251;99215;-61
2023/07/18 03:32:46;;;;;;;;;;;;;;;24.19;58.40;100820.14;107565;1254;99218;-62
2023/07/18 03:35:15;;;;;;;;;;;;;;;24.26;58.63;100826.67;107616;1256;112437;-61
2023/07/18 03:37:43;;;;;;;;;;;;;;;24.33;59.06;100823.93;107524;1251;109669;-60
2023/07/18 03:40:15;;;;;;;;;;;;;;;24.39;59.45;100829.71;107556;1251;106565;-60
2023/07/18 03:42:45;;;;;;;;;;;;;;;24.45;59.75;100834.23;107477;1251;99170;-60
2023/07/18 03:45:14;;;;;;;;;;;;;;;24.48;60.19;100828.73;107505;1257;99185;-60
2023/07/18 03:47:43;;;;;;;;;;;;;;;24.53;60.38;100827.95;107562;1251;112525;-60
2023/07/18 03:50:12;;;;;;;;;;;;;;;24.59;60.34;100831.25;107590;1254;109751;-59
2023/07/18 03:52:41;;;;;;;;;;;;;;;24.63;60.26;100830.27;107618;1254;108479;-60
2023/07/18 03:55:10;;;;;;;;;;;;;;;24.68;60.19;100832.05;107622;1253;99262;-61
2023/07/18 03:57:39;;;;;;;;;;;;;;;24.74;60.41;100838.72;107677;1251;99198;-61
2023/07/18 04:00:13;;;;;;;;;;;;;;;24.75;60.71;100840.35;107487;1254;112863;-61
2023/07/18 04:02:43;;;;;;;;;;;;;;;24.79;60.29;100842.05;107517;1251;109835;-60
2023/07/18 04:05:15;;;;;;;;;;;;;;;24.84;60.17;100842.33;107557;1251;108724;-61
2023/07/18 04:07:44;;;;;;;;;;;;;;;24.90;60.51;100843.86;107610;1251;99252;-62
2023/07/18 04:10:13;;;;;;;;;;;;;;;24.96;60.31;100849.39;107474;1251;99078;-61
2023/07/18 04:12:42;;;;;;;;;;;;;;;25.01;60.36;100850.90;107441;1251;112671;-63
2023/07/18 04:15:14;;;;;;;;;;;;;;;25.06;60.32;100848.71;107486;1251;109906;-62
2023/07/18 04:17:43;;;;;;;;;;;;;;;25.11;60.18;100853.93;107402;1253;107822;-62
2023/07/18 04:20:13;;;;;;;;;;;;;;;25.16;60.52;100855.78;107610;1251;99164;-62
2023/07/18 04:22:42;;;;;;;;;;;;;;;25.15;61.03;100856.13;107587;1251;99039;-62
2023/07/18 04:25:11;;;;;;;;;;;;;;;25.06;61.87;100852.64;107559;1257;113295;-63
2023/07/18 04:27:39;;;;;;;;;;;;;;;24.98;62.16;100849.23;107606;1251;109787;-60
2023/07/18 04:30:08;;;;;;;;;;;;;;;24.96;62.17;100850.50;107582;1251;108381;-60
2023/07/18 04:32:36;;;;;;;;;;;;;;;24.99;62.56;100853.54;107568;1251;99183;-61
2023/07/18 04:35:06;;;;;;;;;;;;;;;24.98;62.55;100859.23;107489;1251;99173;-63
2023/07/18 04:37:35;;;;;;;;;;;;;;;24.98;62.76;100853.34;107626;1251;112969;-62
2023/07/18 04:40:05;;;;;;;;;;;;;;;24.98;62.84;100852.58;107593;1251;109395;-62
2023/07/18 04:42:34;;;;;;;;;;;;;;;24.98;63.06;100855.83;107533;1251;108034;-66
2023/07/18 04:45:05;;;;;;;;;;;;;;;24.95;63.12;100862.73;107562;1251;99306;-63
2023/07/18 04:47:34;;;;;;;;;;;;;;;24.91;63.52;100866.89;107636;1251;99201;-64
2023/07/18 04:50:02;;;;;;;;;;;;;;;24.86;63.32;100868.13;107590;1256;113209;-61
2023/07/18 04:52:31;;;;;;;;;;;;;;;24.84;63.41;100870.21;107609;1251;109201;-63
2023/07/18 04:54:59;;;;;;;;;;;;;;;24.81;63.77;100870.34;107502;1251;108470;-63
2023/07/18 04:57:27;;;;;;;;;;;;;;;24.82;63.53;100873.96;107598;1251;99191;-64
2023/07/18 04:59:55;;;;;;;;;;;;;;;24.88;64.24;100877.20;107482;1251;99058;-62
2023/07/18 05:02:23;;;;;;;;;;;;;;;24.91;63.85;100879.61;107572;1251;113934;-62
2023/07/18 05:04:51;;;;;;;;;;;;;;;25.01;63.78;100878.75;107461;1254;109814;-62
2023/07/18 05:07:19;;;;;;;;;;;;;;;25.08;63.93;100877.09;107580;1251;108424;-62
2023/07/18 05:09:47;;;;;;;;;;;;;;;25.16;63.95;100884.91;107519;1251;99135;-61
2023/07/18 05:12:15;;;;;;;;;;;;;;;25.24;63.57;100880.33;107483;1254;99048;-62
2023/07/18 05:14:43;;;;;;;;;;;;;;;25.36;63.52;100883.98;107438;1254;115643;-62
2023/07/18 05:17:12;;;;;;;;;;;;;;;25.44;62.89;100889.58;107490;1251;109791;-62
2023/07/18 05:19:40;;;;;;;;;;;;;;;25.43;63.00;100890.48;107563;1251;107615;-62
2023/07/18 05:22:08;;;;;;;;;;;;;;;25.44;62.87;100891.11;107545;1251;99304;-62
2023/07/18 05:24:36;;;;;;;;;;;;;;;25.49;62.79;100893.25;107600;1251;99119;-63
2023/07/18 05:27:05;;;;;;;;;;;;;;;25.47;62.49;100897.94;107504;1251;113743;-61
2023/07/18 05:29:33;;;;;;;;;;;;;;;25.44;62.76;100899.45;107493;1254;109140;-61
2023/07/18 05:32:01;;;;;;;;;;;;;;;25.39;62.65;100896.92;107479;1251;108728;-62
2023/07/18 05:34:29;;;;;;;;;;;;;;;25.38;62.86;100894.27;107449;1251;99265;-61
2023/07/18 05:36:59;;;;;;;;;;;;;;;25.38;63.03;100897.60;107506;1251;99173;-63
2023/07/18 05:39:33;;;;;;;;;;;;;;;25.40;62.48;100897.13;107459;1250;112629;-61
2023/07/18 05:42:01;;;;;;;;;;;;;;;25.47;62.38;100898.65;107478;1251;109133;-63
2023/07/18 05:44:31;;;;;;;;;;;;;;;25.53;63.17;100903.06;107473;1251;109553;-63
2023/07/18 05:47:12;;;;;;;;;;;;;;;25.55;63.11;100906.41;107460;1251;99236;-62
2023/07/18 05:49:40;;;;;;;;;;;;;;;25.53;62.90;100908.84;107535;1251;99546;-62
2023/07/18 05:52:12;;;;;;;;;;;;;;;25.58;62.44;100901.81;107462;1255;113428;-63
2023/07/18 05:54:43;;;;;;;;;;;;;;;25.68;62.45;100902.47;107562;1251;110139;-63
2023/07/18 05:57:17;;;;;;;;;;;;;;;25.75;62.68;100907.38;107597;1256;108344;-65
2023/07/18 05:59:48;;;;;;;;;;;;;;;25.79;62.58;100906.39;107469;1254;99221;-61
2023/07/18 06:02:16;;;;;;;;;;;;;;;25.86;62.21;100901.08;107616;1254;99193;-62
2023/07/18 06:04:45;;;;;;;;;;;;;;;25.93;62.07;100904.65;107568;1251;113072;-62
2023/07/18 06:07:13;;;;;;;;;;;;;;;26.00;60.98;100908.80;107455;1254;109693;-63
2023/07/18 06:09:42;;;;;;;;;;;;;;;26.04;60.15;100911.34;107521;1251;108029;-61
2023/07/18 06:12:12;;;;;;;;;;;;;;;26.10;60.01;100912.35;107469;1251;99624;-61
2023/07/18 06:14:40;;;;;;;;;;;;;;;26.17;60.23;100911.92;107528;1251;99247;-62
2023/07/18 06:17:08;;;;;;;;;;;;;;;26.25;59.89;100908.08;107637;1251;113620;-62
2023/07/18 06:19:36;;;;;;;;;;;;;;;26.29;59.62;100909.34;107512;1251;109522;-62
2023/07/18 06:22:05;;;;;;;;;;;;;;;26.33;59.66;100907.52;107463;1251;110016;-63
2023/07/18 06:24:35;;;;;;;;;;;;;;;26.37;59.54;100908.33;107485;1251;99146;-63
2023/07/18 06:27:04;;;;;;;;;;;;;;;26.40;58.88;100908.80;107534;1251;99107;-61
2023/07/18 06:29:32;;;;;;;;;;;;;;;26.42;58.60;100905.66;107480;1251;112354;-63
2023/07/18 06:32:02;;;;;;;;;;;;;;;26.44;58.59;100912.25;107482;1251;109137;-63
2023/07/18 06:34:31;;;;;;;;;;;;;;;26.46;57.92;100909.88;107518;1250;107861;-61
2023/07/18 06:37:02;;;;;;;;;;;;;;;26.54;57.80;100908.89;107444;1251;99159;-62
2023/07/18 06:39:30;;;;;;;;;;;;;;;26.59;57.72;100910.21;107465;1254;99150;-62
2023/07/18 06:41:59;;;;;;;;;;;;;;;26.64;57.69;100914.75;107633;1253;113061;-63
2023/07/18 06:44:27;;;;;;;;;;;;;;;26.67;57.37;100922.83;107572;1253;109665;-61
2023/07/18 06:46:55;;;;;;;;;;;;;;;26.70;57.13;100915.27;107489;1251;107791;-62
2023/07/18 06:49:23;;;;;;;;;;;;;;;26.73;56.56;100921.23;107455;1251;99185;-62
2023/07/18 06:51:52;;;;;;;;;;;;;;;26.73;56.83;100915.16;107450;1251;99179;-63
2023/07/18 06:54:20;;;;;;;;;;;;;;;26.74;56.83;100921.65;107503;1251;112792;-61
2023/07/18 06:56:48;;;;;;;;;;;;;;;26.79;56.82;100911.84;107602;1253;109628;-62
2023/07/18 06:59:19;;;;;;;;;;;;;;;26.86;56.91;100917.98;107624;1251;108299;-61
2023/07/18 07:01:48;;;;;;;;;;;;;;;26.89;56.78;100925.52;107543;1254;99204;-63
2023/07/18 07:04:17;;;;;;;;;;;;;;;26.92;56.49;100923.25;107622;1251;99080;-63
2023/07/18 07:06:53;;;;;;;;;;;;;;;26.92;56.06;100927.16;107434;1251;112714;-64
2023/07/18 07:09:27;;;;;;;;;;;;;;;26.98;56.23;100929.96;107625;1251;109394;-63
2023/07/18 07:12:04;;;;;;;;;;;;;;;27.03;55.58;100936.58;107572;1251;108982;-61
2023/07/18 07:14:32;;;;;;;;;;;;;;;27.01;55.77;100938.58;107593;1256;99267;-62
2023/07/18 07:17:05;;;;;;;;;;;;;;;27.01;55.89;100939.18;107618;1251;99137;-62
2023/07/18 07:19:33;;;;;;;;;;;;;;;27.01;56.24;100939.67;107667;1251;113174;-63
2023/07/18 07:22:11;;;;;;;;;;;;;;;27.05;56.57;100937.55;107630;1251;109718;-62
2023/07/18 07:24:50;;;;;;;;;;;;;;;27.07;56.67;100939.58;107589;1254;108470;-61
2023/07/18 07:27:19;;;;;;;;;;;;;;;27.06;56.92;100937.52;107557;1253;99165;-62
2023/07/18 07:29:49;;;;;;;;;;;;;;;27.10;56.53;100943.23;107580;1251;99070;-63
2023/07/18 07:32:18;;;;;;;;;;;;;;;27.14;56.50;100943.88;107584;1254;113191;-63
2023/07/18 07:34:46;;;;;;;;;;;;;;;27.26;56.02;100948.55;107418;1254;109505;-63
2023/07/18 07:37:14;;;;;;;;;;;;;;;27.36;55.90;100955.48;107526;1251;108422;-62
2023/07/18 07:39:43;;;;;;;;;;;;;;;27.40;56.15;100952.53;107440;1254;99178;-61
2023/07/18 07:42:11;;;;;;;;;;;;;;;27.51;55.38;100951.19;107622;1251;99804;-61
2023/07/18 07:44:39;;;;;;;;;;;;;;;27.55;55.33;100952.92;107631;1251;113725;-63
2023/07/18 07:47:07;;;;;;;;;;;;;;;27.60;55.38;100953.80;107587;1254;109637;-63
2023/07/18 07:49:36;;;;;;;;;;;;;;;27.69;55.40;100952.98;107513;1251;108309;-62
2023/07/18 07:52:04;;;;;;;;;;;;;;;27.75;55.28;100961.98;107554;1252;99272;-63
2023/07/18 07:54:32;;;;;;;;;;;;;;;27.83;55.57;100968.73;107616;1254;99266;-61
2023/07/18 07:57:00;;;;;;;;;;;;;;;27.92;55.52;100962.41;107502;1255;112632;-63
2023/07/18 07:59:29;;;;;;;;;;;;;;;28.02;55.28;100968.14;107572;1251;109947;-62
2023/07/18 08:01:57;;;;;;;;;;;;;;;28.07;55.04;100972.33;107552;1252;106513;-61
2023/07/18 08:04:28;;;;;;;;;;;;;;;28.13;54.89;100970.29;106870;1251;969252;-61
2023/07/18 08:07:20;;;;;;;;;;;;;;;28.17;55.15;100964.06;107609;1254;98368;-64
2023/07/18 08:10:01;;;;;;;;;;;;;;;28.28;55.25;100966.02;107654;1251;113182;-61
2023/07/18 08:12:29;;;;;;;;;;;;;;;28.39;54.74;100968.98;107642;1251;109787;-63
2023/07/18 08:14:57;;;;;;;;;;;;;;;28.41;54.76;100970.88;107512;1250;108897;-59
2023/07/18 08:17:25;;;;;;;;;;;;;;;28.42;54.57;100973.41;107615;1251;99311;-61
2023/07/18 08:19:54;;;;;;;;;;;;;;;28.48;54.05;100969.44;107520;1255;99054;-63
2023/07/18 08:22:22;;;;;;;;;;;;;;;28.55;54.25;100969.39;107652;1253;112746;-63
2023/07/18 08:24:50;;;;;;;;;;;;;;;28.64;54.50;100973.03;107671;1251;109524;-63
2023/07/18 08:27:19;;;;;;;;;;;;;;;28.78;54.17;100968.67;107575;1251;108111;-63
2023/07/18 08:29:47;;;;;;;;;;;;;;;28.91;53.88;100967.20;107601;1254;99166;-61
2023/07/18 08:32:16;;;;;;;;;;;;;;;28.90;52.12;100970.29;107637;1252;99177;-61
2023/07/18 08:34:44;;;;;;;;;;;;;;;28.92;52.08;100960.02;107565;1254;112670;-62
2023/07/18 08:37:13;;;;;;;;;;;;;;;29.06;52.38;100968.63;107599;1254;110743;-61
2023/07/18 08:40:10;;;;;;;;;;;;;;;29.13;51.59;100975.48;107591;1253;108025;-67
2023/07/18 08:43:04;;;;;;;;;;;;;;;28.91;51.47;100984.37;107416;1253;99202;-63
2023/07/18 08:45:44;;;;;;;;;;;;;;;28.89;51.86;100970.55;107515;1254;99266;-63
2023/07/18 08:48:20;;;;;;;;;;;;;;;29.11;51.89;100967.87;107535;1254;111872;-63
2023/07/18 08:50:52;;;;;;;;;;;;;;;29.31;51.46;100973.18;107673;1254;109479;-62
2023/07/18 08:53:20;;;;;;;;;;;;;;;29.43;51.09;100972.73;107451;1250;108107;-62
2023/07/18 08:55:48;;;;;;;;;;;;;;;29.57;50.66;100973.42;107560;1253;99166;-61
2023/07/18 08:58:17;;;;;;;;;;;;;;;29.75;50.67;100975.27;107565;1251;99307;-61
2023/07/18 09:00:46;;;;;;;;;;;;;;;29.95;50.34;100978.79;107520;1251;113324;-62
2023/07/18 09:03:17;;;;;;;;;;;;;;;30.07;49.84;100974.23;107494;1251;108945;-61
2023/07/18 09:05:45;;;;;;;;;;;;;;;30.12;49.29;100980.12;107536;1254;106366;-62
2023/07/18 09:08:14;;;;;;;;;;;;;;;29.99;48.24;100984.33;107438;1254;99153;-62
2023/07/18 09:10:42;;;;;;;;;;;;;;;29.91;48.57;100976.56;107572;1251;99162;-61
2023/07/18 09:13:10;;;;;;;;;;;;;;;30.01;48.73;100972.88;107493;1251;113408;-63
2023/07/18 09:15:39;;;;;;;;;;;;;;;30.17;47.85;100970.74;107476;1254;109732;-62
2023/07/18 09:18:08;;;;;;;;;;;;;;;30.32;48.18;100971.59;107497;1254;109287;-61
2023/07/18 09:20:37;;;;;;;;;;;;;;;30.49;47.61;100972.40;107509;1251;99178;-61
2023/07/18 09:23:05;;;;;;;;;;;;;;;30.64;47.43;100967.65;107537;1254;99191;-61
2023/07/18 09:25:38;;;;;;;;;;;;;;;30.72;47.08;100972.82;107566;1251;112621;-61
2023/07/18 09:28:09;;;;;;;;;;;;;;;30.85;46.71;100972.84;107512;1254;109894;-62
2023/07/18 09:30:40;;;;;;;;;;;;;;;31.02;45.92;100975.85;107446;1253;107698;-63
2023/07/18 09:33:08;;;;;;;;;;;;;;;31.42;45.31;100975.06;107612;1251;99266;-62
2023/07/18 09:35:39;;;;;;;;;;;;;;;31.86;44.68;100971.77;107583;1251;99134;-61
2023/07/18 09:38:07;;;;;;;;;;;;;;;32.29;43.64;100969.90;107456;1251;113436;-62
2023/07/18 09:40:44;;;;;;;;;;;;;;;32.36;43.08;100973.42;107613;1254;109838;-62
2023/07/18 09:43:12;;;;;;;;;;;;;;;32.36;42.95;100973.97;107619;1254;106871;-62
2023/07/18 09:45:41;;;;;;;;;;;;;;;32.14;42.95;100974.38;107524;1251;99142;-62
2023/07/18 09:48:10;;;;;;;;;;;;;;;32.41;42.27;100972.46;107538;1251;99103;-62
2023/07/18 09:50:40;;;;;;;;;;;;;;;32.71;42.06;100975.71;107579;1253;112873;-67
2023/07/18 09:53:11;;;;;;;;;;;;;;;32.82;41.40;100972.72;107535;1253;110416;-60
2023/07/18 09:55:40;;;;;;;;;;;;;;;32.90;41.47;100966.70;107601;1253;108577;-62
2023/07/18 09:58:10;;;;;;;;;;;;;;;32.83;41.29;100965.31;107555;1255;99220;-61
2023/07/18 10:00:41;;;;;;;;;;;;;;;32.90;41.52;100961.73;107678;1253;99191;-60
2023/07/18 10:03:09;;;;;;;;;;;;;;;33.05;40.36;100963.20;107664;1252;112958;-62
2023/07/18 10:05:38;;;;;;;;;;;;;;;33.17;40.51;100954.95;107557;1251;110503;-61
2023/07/18 10:08:08;;;;;;;;;;;;;;;33.62;38.84;100951.16;107491;1254;109039;-60
2023/07/18 10:10:35;;;;;;;;;;;;;;;33.97;39.16;100951.52;107471;1251;99171;-61
2023/07/18 10:13:05;;;;;;;;;;;;;;;34.09;39.13;100952.27;107590;1251;99256;-61
2023/07/18 10:15:53;;;;;;;;;;;;;;;33.99;39.17;100954.23;107534;1250;112788;-63
2023/07/18 10:18:24;;;;;;;;;;;;;;;34.30;37.80;100945.16;107536;1251;108693;-61
2023/07/18 10:20:57;;;;;;;;;;;;;;;34.77;36.95;100951.79;107566;1251;107945;-62
2023/07/18 10:23:41;;;;;;;;;;;;;;;34.98;35.67;100950.13;107597;1251;99249;-61
2023/07/18 10:26:10;;;;;;;;;;;;;;;35.30;35.96;100941.08;107502;1251;99365;-62
2023/07/18 10:28:42;;;;;;;;;;;;;;;35.81;35.14;100938.20;107574;1251;113354;-61
2023/07/18 10:31:40;;;;;;;;;;;;;;;35.99;34.12;100945.02;107545;1251;110153;-61
2023/07/18 10:34:16;;;;;;;;;;;;;;;35.21;34.90;100939.29;107482;1253;108966;-66
2023/07/18 10:36:57;;;;;;;;;;;;;;;34.97;35.66;100941.62;107598;1250;99064;-60
2023/07/18 10:39:39;;;;;;;;;;;;;;;35.38;34.32;100936.50;107663;1251;99070;-62
2023/07/18 10:42:20;;;;;;;;;;;;;;;35.88;34.40;100942.92;107520;1251;113533;-63
2023/07/18 10:44:52;;;;;;;;;;;;;;;36.46;33.98;100942.88;107537;1252;108627;-63
2023/07/18 10:47:19;;;;;;;;;;;;;;;36.88;33.27;100941.43;107481;1254;108996;-62
2023/07/18 10:49:48;;;;;;;;;;;;;;;36.74;34.15;100934.74;107554;1251;99164;-60
2023/07/18 10:52:18;;;;;;;;;;;;;;;37.08;32.66;100928.30;107561;1254;99182;-62
2023/07/18 10:54:54;;;;;;;;;;;;;;;37.52;31.72;100928.57;107539;1251;112661;-60
2023/07/18 10:57:24;;;;;;;;;;;;;;;38.03;31.13;100925.70;107617;1251;110254;-61
2023/07/18 10:59:52;;;;;;;;;;;;;;;38.56;29.53;100926.20;107635;1254;108086;-64
2023/07/18 11:02:24;;;;;;;;;;;;;;;38.78;29.09;100928.02;107499;1251;99182;-62
2023/07/18 11:04:53;;;;;;;;;;;;;;;39.09;27.97;100921.64;107585;1253;99064;-61
2023/07/18 11:07:33;;;;;;;;;;;;;;;39.21;27.69;100929.73;107611;1250;113282;-62
2023/07/18 11:10:03;;;;;;;;;;;;;;;39.45;28.36;100926.66;107610;1253;109219;-61
2023/07/18 11:12:31;;;;;;;;;;;;;;;39.76;27.05;100926.48;107603;1251;108309;-63
2023/07/18 11:15:00;;;;;;;;;;;;;;;39.45;27.54;100928.61;107466;1251;99165;-62
2023/07/18 11:17:28;;;;;;;;;;;;;;;39.79;27.16;100925.81;107579;1250;99087;-62
2023/07/18 11:19:57;;;;;;;;;;;;;;;40.27;26.73;100921.71;107506;1254;112460;-61
2023/07/18 11:22:27;;;;;;;;;;;;;;;40.57;26.41;100916.72;107533;1254;109460;-60
2023/07/18 11:24:56;;;;;;;;;;;;;;;40.93;26.17;100914.35;107559;1251;107856;-64
2023/07/18 11:27:25;;;;;;;;;;;;;;;40.68;26.31;100921.55;107617;1254;99365;-63
2023/07/18 11:30:05;;;;;;;;;;;;;;;40.32;26.54;100921.67;107612;1251;99157;-61
2023/07/18 11:32:39;;;;;;;;;;;;;;;40.50;26.21;100923.11;107546;1254;113250;-62
2023/07/18 11:35:09;;;;;;;;;;;;;;;41.00;25.81;100915.22;107533;1251;111230;-62
2023/07/18 11:37:39;;;;;;;;;;;;;;;41.59;24.87;100914.50;107468;1254;108544;-67
2023/07/18 11:40:10;;;;;;;;;;;;;;;41.97;24.42;100919.40;107610;1256;99795;-61
2023/07/18 11:42:49;;;;;;;;;;;;;;;42.25;23.90;100918.13;107591;1251;99229;-69
2023/07/18 11:45:21;;;;;;;;;;;;;;;42.56;22.71;100916.30;107568;1251;113996;-61
2023/07/18 11:47:57;;;;;;;;;;;;;;;42.48;22.70;100920.55;107555;1255;109199;-62
2023/07/18 11:50:31;;;;;;;;;;;;;;;42.75;23.00;100919.30;107546;1254;107981;-63
2023/07/18 11:53:03;;;;;;;;;;;;;;;42.85;22.47;100917.79;107529;1251;99223;-62
2023/07/18 11:55:31;;;;;;;;;;;;;;;42.12;22.97;100913.94;107538;1254;99105;-61
2023/07/18 11:57:59;;;;;;;;;;;;;;;41.89;23.77;100915.55;107534;1253;115218;-64
2023/07/18 12:00:27;;;;;;;;;;;;;;;42.27;22.61;100914.25;107576;1251;109717;-61
2023/07/18 12:02:55;;;;;;;;;;;;;;;42.24;23.02;100915.04;107533;1251;108165;-62
2023/07/18 12:05:26;;;;;;;;;;;;;;;42.56;23.13;100908.96;107505;1250;99211;-63
2023/07/18 12:07:55;;;;;;;;;;;;;;;42.82;22.44;100914.38;107578;1251;99249;-62
2023/07/18 12:10:23;;;;;;;;;;;;;;;42.59;22.25;100905.67;107583;1250;112366;-62
2023/07/18 12:12:53;;;;;;;;;;;;;;;42.89;22.33;100903.02;107542;1251;109293;-62
2023/07/18 12:15:21;;;;;;;;;;;;;;;43.42;21.83;100902.69;107533;1256;108403;-60
2023/07/18 12:17:51;;;;;;;;;;;;;;;43.66;20.81;100898.38;107504;1254;99868;-62
2023/07/18 12:20:19;;;;;;;;;;;;;;;43.70;21.40;100903.27;107580;1254;99275;-61
2023/07/18 12:22:48;;;;;;;;;;;;;;;43.68;20.30;100900.11;107520;1254;113695;-61
2023/07/18 12:25:16;;;;;;;;;;;;;;;43.01;20.74;100896.61;107546;1251;109090;-62
2023/07/18 12:27:45;;;;;;;;;;;;;;;42.81;21.15;100897.30;107507;1254;108333;-62
2023/07/18 12:30:13;;;;;;;;;;;;;;;43.12;21.37;100887.70;107621;1251;99189;-61
2023/07/18 12:32:41;;;;;;;;;;;;;;;43.68;20.70;100874.15;107579;1251;99259;-61
2023/07/18 12:35:11;;;;;;;;;;;;;;;43.91;19.84;100870.67;107563;1255;113165;-60